sensor_id;sensor_type;location;lat;lon;timestamp;pressure;altitude;pressure_sealevel;temperature;humidity
61318;BME280;47201;40.428;-8.436;2023-01-28T00:00:33;101325.69;;;3.54;100.00
61318;BME280;47201;40.428;-8.436;2023-01-28T00:02:34;101327.31;;;3.52;100.00
61318;BME280;47201;40.428;-8.436;2023-01-28T00:04:34;101320.38;;;3.51;100.00
61318;BME280;47201;40.428;-8.436;2023-01-28T00:06:35;101322.78;;;3.46;100.00
61318;BME280;47201;40.428;-8.436;2023-01-28T00:08:35;101326.97;;;3.42;100.00
61318;BME280;47201;40.428;-8.436;2023-01-28T00:10:36;101335.53;;;3.41;100.00
61318;BME280;47201;40.428;-8.436;2023-01-28T00:12:38;101335.38;;;3.37;100.00
61318;BME280;47201;40.428;-8.436;2023-01-28T00:14:39;101333.56;;;3.34;100.00
61318;BME280;47201;40.428;-8.436;2023-01-28T00:16:39;101331.78;;;3.33;100.00
61318;BME280;47201;40.428;-8.436;2023-01-28T00:18:40;101337.25;;;3.41;100.00
61318;BME280;47201;40.428;-8.436;2023-01-28T00:20:40;101339.94;;;3.44;100.00
61318;BME280;47201;40.428;-8.436;2023-01-28T00:22:45;101340.44;;;3.33;100.00
61318;BME280;47201;40.428;-8.436;2023-01-28T00:24:47;101341.03;;;3.26;100.00
61318;BME280;47201;40.428;-8.436;2023-01-28T00:26:50;101344.44;;;3.25;100.00
61318;BME280;47201;40.428;-8.436;2023-01-28T00:28:51;101337.31;;;3.20;100.00
61318;BME280;47201;40.428;-8.436;2023-01-28T00:30:51;101333.84;;;3.19;100.00
61318;BME280;47201;40.428;-8.436;2023-01-28T00:32:52;101331.91;;;3.13;100.00
61318;BME280;47201;40.428;-8.436;2023-01-28T00:34:53;101326.78;;;3.15;100.00
61318;BME280;47201;40.428;-8.436;2023-01-28T00:36:53;101320.22;;;3.23;100.00
61318;BME280;47201;40.428;-8.436;2023-01-28T00:38:57;101329.03;;;3.28;100.00
61318;BME280;47201;40.428;-8.436;2023-01-28T00:41:11;101325.97;;;3.39;100.00
61318;BME280;47201;40.428;-8.436;2023-01-28T00:43:12;101335.72;;;3.46;100.00
61318;BME280;47201;40.428;-8.436;2023-01-28T00:45:13;101342.88;;;3.53;100.00
61318;BME280;47201;40.428;-8.436;2023-01-28T00:47:13;101337.03;;;3.57;100.00
61318;BME280;47201;40.428;-8.436;2023-01-28T00:49:14;101341.66;;;3.43;100.00
61318;BME280;47201;40.428;-8.436;2023-01-28T00:51:15;101337.72;;;3.30;100.00
61318;BME280;47201;40.428;-8.436;2023-01-28T00:53:16;101341.03;;;3.26;100.00
61318;BME280;47201;40.428;-8.436;2023-01-28T00:55:18;101343.59;;;3.26;100.00
61318;BME280;47201;40.428;-8.436;2023-01-28T00:57:19;101339.50;;;3.31;100.00
61318;BME280;47201;40.428;-8.436;2023-01-28T00:59:19;101341.22;;;3.31;100.00
61318;BME280;47201;40.428;-8.436;2023-01-28T01:01:21;101336.53;;;3.22;100.00
61318;BME280;47201;40.428;-8.436;2023-01-28T01:03:23;101342.19;;;3.12;100.00
61318;BME280;47201;40.428;-8.436;2023-01-28T01:05:23;101346.22;;;3.05;100.00
61318;BME280;47201;40.428;-8.436;2023-01-28T01:07:25;101344.34;;;3.01;100.00
61318;BME280;47201;40.428;-8.436;2023-01-28T01:09:34;101347.63;;;2.97;100.00
61318;BME280;47201;40.428;-8.436;2023-01-28T01:11:34;101349.53;;;3.01;100.00
61318;BME280;47201;40.428;-8.436;2023-01-28T01:13:35;101338.53;;;3.07;100.00
61318;BME280;47201;40.428;-8.436;2023-01-28T01:15:36;101348.94;;;3.08;100.00
61318;BME280;47201;40.428;-8.436;2023-01-28T01:17:37;101348.75;;;3.04;100.00
61318;BME280;47201;40.428;-8.436;2023-01-28T01:19:40;101346.63;;;2.93;100.00
61318;BME280;47201;40.428;-8.436;2023-01-28T01:21:42;101351.59;;;2.89;100.00
61318;BME280;47201;40.428;-8.436;2023-01-28T01:23:46;101344.66;;;2.88;100.00
61318;BME280;47201;40.428;-8.436;2023-01-28T01:25:47;101346.50;;;2.90;100.00
61318;BME280;47201;40.428;-8.436;2023-01-28T01:27:50;101340.41;;;2.88;100.00
61318;BME280;47201;40.428;-8.436;2023-01-28T01:29:51;101335.81;;;2.81;100.00
61318;BME280;47201;40.428;-8.436;2023-01-28T01:31:52;101337.06;;;2.69;100.00
61318;BME280;47201;40.428;-8.436;2023-01-28T01:33:53;101341.00;;;2.61;100.00
61318;BME280;47201;40.428;-8.436;2023-01-28T01:35:54;101341.00;;;2.61;100.00
61318;BME280;47201;40.428;-8.436;2023-01-28T01:37:55;101337.88;;;2.68;100.00
61318;BME280;47201;40.428;-8.436;2023-01-28T01:39:55;101338.31;;;2.79;100.00
61318;BME280;47201;40.428;-8.436;2023-01-28T01:41:56;101333.47;;;2.87;100.00
61318;BME280;47201;40.428;-8.436;2023-01-28T01:44:00;101340.50;;;2.91;100.00
61318;BME280;47201;40.428;-8.436;2023-01-28T01:46:01;101350.16;;;2.74;100.00
61318;BME280;47201;40.428;-8.436;2023-01-28T01:48:03;101339.44;;;2.65;100.00
61318;BME280;47201;40.428;-8.436;2023-01-28T01:50:28;101337.50;;;2.59;100.00
61318;BME280;47201;40.428;-8.436;2023-01-28T01:52:27;101335.84;;;2.61;100.00
61318;BME280;47201;40.428;-8.436;2023-01-28T01:54:31;101332.09;;;2.53;100.00
61318;BME280;47201;40.428;-8.436;2023-01-28T01:56:34;101334.97;;;2.40;100.00
61318;BME280;47201;40.428;-8.436;2023-01-28T01:58:37;101337.19;;;2.30;100.00
61318;BME280;47201;40.428;-8.436;2023-01-28T02:00:39;101328.59;;;2.31;100.00
61318;BME280;47201;40.428;-8.436;2023-01-28T02:02:43;101317.56;;;2.34;100.00
61318;BME280;47201;40.428;-8.436;2023-01-28T02:04:44;101318.47;;;2.36;100.00
61318;BME280;47201;40.428;-8.436;2023-01-28T02:06:49;101326.88;;;2.30;100.00
61318;BME280;47201;40.428;-8.436;2023-01-28T02:08:54;101330.16;;;2.28;100.00
61318;BME280;47201;40.428;-8.436;2023-01-28T02:10:55;101335.31;;;2.28;100.00
61318;BME280;47201;40.428;-8.436;2023-01-28T02:12:58;101342.34;;;2.30;100.00
61318;BME280;47201;40.428;-8.436;2023-01-28T02:15:01;101347.13;;;2.42;100.00
61318;BME280;47201;40.428;-8.436;2023-01-28T02:17:02;101337.88;;;2.47;100.00
61318;BME280;47201;40.428;-8.436;2023-01-28T02:19:03;101327.47;;;2.46;100.00
61318;BME280;47201;40.428;-8.436;2023-01-28T02:23:20;101342.56;;;2.15;100.00
61318;BME280;47201;40.428;-8.436;2023-01-28T02:30:08;101356.34;;;1.96;100.00
61318;BME280;47201;40.428;-8.436;2023-01-28T02:34:44;101358.31;;;2.02;100.00
61318;BME280;47201;40.428;-8.436;2023-01-28T02:38:53;101359.13;;;2.01;100.00
61318;BME280;47201;40.428;-8.436;2023-01-28T02:40:57;101352.81;;;1.94;100.00
61318;BME280;47201;40.428;-8.436;2023-01-28T02:43:05;101354.31;;;1.89;100.00
61318;BME280;47201;40.428;-8.436;2023-01-28T02:45:38;101355.94;;;1.87;100.00
61318;BME280;47201;40.428;-8.436;2023-01-28T02:47:50;101351.47;;;1.83;100.00
61318;BME280;47201;40.428;-8.436;2023-01-28T02:49:58;101354.03;;;1.83;100.00
61318;BME280;47201;40.428;-8.436;2023-01-28T02:54:13;101367.31;;;1.72;100.00
61318;BME280;47201;40.428;-8.436;2023-01-28T02:58:35;101370.19;;;1.98;100.00
61318;BME280;47201;40.428;-8.436;2023-01-28T03:02:50;101371.31;;;2.05;100.00
61318;BME280;47201;40.428;-8.436;2023-01-28T03:04:58;101375.28;;;2.16;100.00
61318;BME280;47201;40.428;-8.436;2023-01-28T03:07:02;101364.91;;;2.15;100.00
61318;BME280;47201;40.428;-8.436;2023-01-28T03:09:05;101372.66;;;2.15;100.00
61318;BME280;47201;40.428;-8.436;2023-01-28T03:11:22;101383.06;;;2.18;100.00
61318;BME280;47201;40.428;-8.436;2023-01-28T03:13:42;101389.03;;;2.36;100.00
61318;BME280;47201;40.428;-8.436;2023-01-28T03:16:03;101387.94;;;2.51;100.00
61318;BME280;47201;40.428;-8.436;2023-01-28T03:18:43;101382.88;;;2.54;100.00
61318;BME280;47201;40.428;-8.436;2023-01-28T03:21:07;101376.09;;;2.56;100.00
61318;BME280;47201;40.428;-8.436;2023-01-28T03:23:31;101378.97;;;2.43;100.00
61318;BME280;47201;40.428;-8.436;2023-01-28T03:25:55;101379.28;;;2.29;100.00
61318;BME280;47201;40.428;-8.436;2023-01-28T03:28:16;101378.94;;;2.21;100.00
61318;BME280;47201;40.428;-8.436;2023-01-28T03:30:48;101384.44;;;2.29;100.00
61318;BME280;47201;40.428;-8.436;2023-01-28T03:33:22;101389.59;;;2.29;100.00
61318;BME280;47201;40.428;-8.436;2023-01-28T03:35:42;101384.72;;;2.16;100.00
61318;BME280;47201;40.428;-8.436;2023-01-28T03:38:01;101380.03;;;2.07;100.00
61318;BME280;47201;40.428;-8.436;2023-01-28T03:40:18;101374.44;;;1.98;100.00
61318;BME280;47201;40.428;-8.436;2023-01-28T03:42:21;101371.88;;;1.98;100.00
61318;BME280;47201;40.428;-8.436;2023-01-28T03:44:38;101370.59;;;1.88;100.00
61318;BME280;47201;40.428;-8.436;2023-01-28T03:46:52;101371.47;;;1.69;100.00
61318;BME280;47201;40.428;-8.436;2023-01-28T03:48:53;101368.00;;;1.49;100.00
61318;BME280;47201;40.428;-8.436;2023-01-28T03:50:54;101381.47;;;1.43;100.00
61318;BME280;47201;40.428;-8.436;2023-01-28T03:52:56;101378.16;;;1.46;100.00
61318;BME280;47201;40.428;-8.436;2023-01-28T03:55:20;101377.69;;;1.54;100.00
61318;BME280;47201;40.428;-8.436;2023-01-28T03:57:24;101378.06;;;1.62;100.00
61318;BME280;47201;40.428;-8.436;2023-01-28T03:59:25;101376.50;;;1.66;100.00
61318;BME280;47201;40.428;-8.436;2023-01-28T04:01:26;101368.81;;;1.67;100.00
61318;BME280;47201;40.428;-8.436;2023-01-28T04:03:26;101376.50;;;1.66;100.00
61318;BME280;47201;40.428;-8.436;2023-01-28T04:06:01;101374.56;;;1.62;100.00
61318;BME280;47201;40.428;-8.436;2023-01-28T04:08:22;101367.75;;;1.62;100.00
61318;BME280;47201;40.428;-8.436;2023-01-28T04:10:39;101365.44;;;1.68;100.00
61318;BME280;47201;40.428;-8.436;2023-01-28T04:12:50;101370.72;;;1.71;100.00
61318;BME280;47201;40.428;-8.436;2023-01-28T04:14:53;101367.25;;;1.71;100.00
61318;BME280;47201;40.428;-8.436;2023-01-28T04:16:59;101367.69;;;1.80;100.00
61318;BME280;47201;40.428;-8.436;2023-01-28T04:19:00;101364.34;;;1.83;100.00
61318;BME280;47201;40.428;-8.436;2023-01-28T04:21:01;101370.59;;;1.88;100.00
61318;BME280;47201;40.428;-8.436;2023-01-28T04:23:02;101374.06;;;1.88;100.00
61318;BME280;47201;40.428;-8.436;2023-01-28T04:25:04;101373.59;;;1.97;100.00
61318;BME280;47201;40.428;-8.436;2023-01-28T04:27:04;101375.28;;;1.97;100.00
61318;BME280;47201;40.428;-8.436;2023-01-28T04:29:05;101376.16;;;1.97;100.00
61318;BME280;47201;40.428;-8.436;2023-01-28T04:31:07;101382.63;;;1.87;100.00
61318;BME280;47201;40.428;-8.436;2023-01-28T04:33:26;101382.19;;;1.78;100.00
61318;BME280;47201;40.428;-8.436;2023-01-28T04:35:46;101390.78;;;1.59;100.00
61318;BME280;47201;40.428;-8.436;2023-01-28T04:38:09;101387.66;;;1.47;100.00
61318;BME280;47201;40.428;-8.436;2023-01-28T04:40:38;101390.88;;;1.42;100.00
61318;BME280;47201;40.428;-8.436;2023-01-28T04:42:51;101383.16;;;1.42;100.00
61318;BME280;47201;40.428;-8.436;2023-01-28T04:44:59;101386.41;;;1.38;100.00
61318;BME280;47201;40.428;-8.436;2023-01-28T04:47:32;101385.59;;;1.39;100.00
61318;BME280;47201;40.428;-8.436;2023-01-28T04:49:55;101379.94;;;1.29;100.00
61318;BME280;47201;40.428;-8.436;2023-01-28T04:52:18;101374.94;;;1.14;100.00
61318;BME280;47201;40.428;-8.436;2023-01-28T04:54:34;101372.81;;;0.87;100.00
61318;BME280;47201;40.428;-8.436;2023-01-28T04:56:37;101372.78;;;0.69;100.00
61318;BME280;47201;40.428;-8.436;2023-01-28T04:58:38;101373.56;;;0.50;100.00
61318;BME280;47201;40.428;-8.436;2023-01-28T05:00:43;101370.03;;;0.31;100.00
61318;BME280;47201;40.428;-8.436;2023-01-28T05:02:43;101365.25;;;0.21;100.00
61318;BME280;47201;40.428;-8.436;2023-01-28T05:04:44;101365.09;;;0.18;100.00
61318;BME280;47201;40.428;-8.436;2023-01-28T05:06:56;101369.34;;;0.17;100.00
61318;BME280;47201;40.428;-8.436;2023-01-28T05:09:02;101370.53;;;0.24;100.00
61318;BME280;47201;40.428;-8.436;2023-01-28T05:11:03;101369.41;;;0.35;100.00
61318;BME280;47201;40.428;-8.436;2023-01-28T05:13:04;101375.97;;;0.46;100.00
61318;BME280;47201;40.428;-8.436;2023-01-28T05:15:05;101377.41;;;0.58;100.00
61318;BME280;47201;40.428;-8.436;2023-01-28T05:17:06;101381.25;;;0.66;100.00
61318;BME280;47201;40.428;-8.436;2023-01-28T05:19:06;101389.03;;;0.68;100.00
61318;BME280;47201;40.428;-8.436;2023-01-28T05:21:10;101388.56;;;0.58;100.00
61318;BME280;47201;40.428;-8.436;2023-01-28T05:23:12;101387.97;;;0.46;100.00
61318;BME280;47201;40.428;-8.436;2023-01-28T05:25:23;101385.66;;;0.34;100.00
61318;BME280;47201;40.428;-8.436;2023-01-28T05:27:24;101388.03;;;0.31;100.00
61318;BME280;47201;40.428;-8.436;2023-01-28T05:29:25;101388.72;;;0.27;100.00
61318;BME280;47201;40.428;-8.436;2023-01-28T05:31:25;101385.72;;;0.19;100.00
61318;BME280;47201;40.428;-8.436;2023-01-28T05:33:26;101376.84;;;0.12;100.00
61318;BME280;47201;40.428;-8.436;2023-01-28T05:35:26;101387.59;;;0.05;100.00
61318;BME280;47201;40.428;-8.436;2023-01-28T05:37:27;101383.25;;;0.21;100.00
61318;BME280;47201;40.428;-8.436;2023-01-28T05:39:29;101384.28;;;0.41;100.00
61318;BME280;47201;40.428;-8.436;2023-01-28T05:41:31;101375.41;;;0.52;100.00
61318;BME280;47201;40.428;-8.436;2023-01-28T05:43:35;101378.44;;;0.61;100.00
61318;BME280;47201;40.428;-8.436;2023-01-28T05:45:45;101381.91;;;0.80;100.00
61318;BME280;47201;40.428;-8.436;2023-01-28T05:48:08;101385.81;;;0.90;100.00
61318;BME280;47201;40.428;-8.436;2023-01-28T05:50:19;101390.53;;;1.17;100.00
61318;BME280;47201;40.428;-8.436;2023-01-28T05:52:38;101389.31;;;1.46;100.00
61318;BME280;47201;40.428;-8.436;2023-01-28T05:54:44;101388.88;;;1.55;100.00
61318;BME280;47201;40.428;-8.436;2023-01-28T05:56:45;101390.97;;;1.44;100.00
61318;BME280;47201;40.428;-8.436;2023-01-28T05:58:47;101403.88;;;1.26;100.00
61318;BME280;47201;40.428;-8.436;2023-01-28T06:00:53;101404.50;;;1.04;100.00
61318;BME280;47201;40.428;-8.436;2023-01-28T06:02:57;101399.50;;;0.89;100.00
61318;BME280;47201;40.428;-8.436;2023-01-28T06:04:58;101398.53;;;0.87;100.00
61318;BME280;47201;40.428;-8.436;2023-01-28T06:06:59;101403.91;;;0.73;100.00
61318;BME280;47201;40.428;-8.436;2023-01-28T06:09:00;101407.28;;;0.72;100.00
61318;BME280;47201;40.428;-8.436;2023-01-28T06:11:04;101407.41;;;0.75;100.00
61318;BME280;47201;40.428;-8.436;2023-01-28T06:13:07;101408.25;;;0.74;100.00
61318;BME280;47201;40.428;-8.436;2023-01-28T06:15:14;101411.38;;;0.69;100.00
61318;BME280;47201;40.428;-8.436;2023-01-28T06:17:32;101416.63;;;0.54;100.00
61318;BME280;47201;40.428;-8.436;2023-01-28T06:19:39;101408.31;;;0.41;100.00
61318;BME280;47201;40.428;-8.436;2023-01-28T06:21:41;101406.84;;;0.30;100.00
61318;BME280;47201;40.428;-8.436;2023-01-28T06:23:42;101418.53;;;0.23;100.00
61318;BME280;47201;40.428;-8.436;2023-01-28T06:25:43;101411.84;;;0.10;100.00
61318;BME280;47201;40.428;-8.436;2023-01-28T06:27:45;101413.00;;;-0.01;100.00
61318;BME280;47201;40.428;-8.436;2023-01-28T06:29:46;101421.06;;;-0.10;100.00
61318;BME280;47201;40.428;-8.436;2023-01-28T06:31:47;101419.09;;;-0.15;100.00
61318;BME280;47201;40.428;-8.436;2023-01-28T06:33:48;101425.16;;;-0.13;100.00
61318;BME280;47201;40.428;-8.436;2023-01-28T06:35:49;101421.41;;;-0.04;100.00
61318;BME280;47201;40.428;-8.436;2023-01-28T06:37:49;101422.13;;;-0.06;100.00
61318;BME280;47201;40.428;-8.436;2023-01-28T06:39:51;101423.91;;;-0.05;100.00
61318;BME280;47201;40.428;-8.436;2023-01-28T06:41:52;101428.16;;;-0.06;100.00
61318;BME280;47201;40.428;-8.436;2023-01-28T06:43:52;101425.91;;;0.01;100.00
61318;BME280;47201;40.428;-8.436;2023-01-28T06:45:53;101432.66;;;-0.02;100.00
61318;BME280;47201;40.428;-8.436;2023-01-28T06:47:54;101424.38;;;0.04;100.00
61318;BME280;47201;40.428;-8.436;2023-01-28T06:49:54;101428.56;;;0.19;100.00
61318;BME280;47201;40.428;-8.436;2023-01-28T06:51:55;101428.88;;;0.25;100.00
61318;BME280;47201;40.428;-8.436;2023-01-28T06:53:55;101423.44;;;0.35;100.00
61318;BME280;47201;40.428;-8.436;2023-01-28T06:55:56;101427.09;;;0.40;100.00
61318;BME280;47201;40.428;-8.436;2023-01-28T06:57:56;101440.88;;;0.41;100.00
61318;BME280;47201;40.428;-8.436;2023-01-28T06:59:57;101433.47;;;0.30;100.00
61318;BME280;47201;40.428;-8.436;2023-01-28T07:01:57;101439.09;;;0.07;100.00
61318;BME280;47201;40.428;-8.436;2023-01-28T07:03:58;101447.50;;;-0.12;100.00
61318;BME280;47201;40.428;-8.436;2023-01-28T07:05:58;101443.00;;;-0.17;100.00
61318;BME280;47201;40.428;-8.436;2023-01-28T07:08:00;101436.72;;;-0.22;100.00
61318;BME280;47201;40.428;-8.436;2023-01-28T07:10:02;101439.16;;;-0.25;100.00
61318;BME280;47201;40.428;-8.436;2023-01-28T07:12:02;101438.97;;;-0.28;100.00
61318;BME280;47201;40.428;-8.436;2023-01-28T07:14:04;101441.38;;;-0.31;100.00
61318;BME280;47201;40.428;-8.436;2023-01-28T07:16:05;101443.16;;;-0.30;100.00
61318;BME280;47201;40.428;-8.436;2023-01-28T07:18:05;101443.16;;;-0.30;100.00
61318;BME280;47201;40.428;-8.436;2023-01-28T07:20:07;101449.88;;;-0.32;100.00
61318;BME280;47201;40.428;-8.436;2023-01-28T07:22:08;101449.63;;;-0.37;100.00
61318;BME280;47201;40.428;-8.436;2023-01-28T07:24:09;101448.66;;;-0.39;100.00
61318;BME280;47201;40.428;-8.436;2023-01-28T07:26:09;101448.91;;;-0.34;100.00
61318;BME280;47201;40.428;-8.436;2023-01-28T07:28:10;101450.16;;;-0.27;100.00
61318;BME280;47201;40.428;-8.436;2023-01-28T07:30:11;101444.28;;;-0.25;100.00
61318;BME280;47201;40.428;-8.436;2023-01-28T07:32:12;101450.53;;;-0.20;100.00
61318;BME280;47201;40.428;-8.436;2023-01-28T07:34:13;101461.72;;;-0.19;100.00
61318;BME280;47201;40.428;-8.436;2023-01-28T07:36:13;101456.16;;;-0.27;100.00
61318;BME280;47201;40.428;-8.436;2023-01-28T07:38:13;101460.31;;;-0.29;100.00
61318;BME280;47201;40.428;-8.436;2023-01-28T07:40:14;101464.25;;;-0.36;100.00
61318;BME280;47201;40.428;-8.436;2023-01-28T07:42:15;101454.78;;;-0.37;100.00
61318;BME280;47201;40.428;-8.436;2023-01-28T07:44:21;101454.13;;;-0.33;100.00
61318;BME280;47201;40.428;-8.436;2023-01-28T07:46:21;101459.84;;;-0.22;100.00
61318;BME280;47201;40.428;-8.436;2023-01-28T07:48:22;101451.03;;;-0.10;100.00
61318;BME280;47201;40.428;-8.436;2023-01-28T07:50:23;101446.41;;;-0.01;100.00
61318;BME280;47201;40.428;-8.436;2023-01-28T07:52:23;101446.41;;;0.15;100.00
61318;BME280;47201;40.428;-8.436;2023-01-28T07:54:24;101446.34;;;0.30;100.00
61318;BME280;47201;40.428;-8.436;2023-01-28T07:56:24;101450.91;;;0.36;100.00
61318;BME280;47201;40.428;-8.436;2023-01-28T07:58:28;101452.03;;;0.41;100.00
61318;BME280;47201;40.428;-8.436;2023-01-28T08:00:30;101455.56;;;0.43;100.00
61318;BME280;47201;40.428;-8.436;2023-01-28T08:02:30;101459.81;;;0.43;100.00
61318;BME280;47201;40.428;-8.436;2023-01-28T08:04:31;101453.81;;;0.42;100.00
61318;BME280;47201;40.428;-8.436;2023-01-28T08:06:31;101456.44;;;0.44;100.00
61318;BME280;47201;40.428;-8.436;2023-01-28T08:08:36;101457.00;;;0.38;100.00
61318;BME280;47201;40.428;-8.436;2023-01-28T08:10:37;101455.88;;;0.33;100.00
61318;BME280;47201;40.428;-8.436;2023-01-28T08:12:38;101450.75;;;0.33;100.00
61318;BME280;47201;40.428;-8.436;2023-01-28T08:14:39;101451.78;;;0.37;100.00
61318;BME280;47201;40.428;-8.436;2023-01-28T08:16:39;101452.28;;;0.46;100.00
61318;BME280;47201;40.428;-8.436;2023-01-28T08:18:40;101451.44;;;0.63;100.00
61318;BME280;47201;40.428;-8.436;2023-01-28T08:20:40;101457.28;;;0.77;100.00
61318;BME280;47201;40.428;-8.436;2023-01-28T08:22:42;101461.47;;;1.10;100.00
61318;BME280;47201;40.428;-8.436;2023-01-28T08:24:43;101459.63;;;1.62;100.00
61318;BME280;47201;40.428;-8.436;2023-01-28T08:26:43;101461.69;;;2.06;100.00
61318;BME280;47201;40.428;-8.436;2023-01-28T08:28:45;101461.06;;;2.51;100.00
61318;BME280;47201;40.428;-8.436;2023-01-28T08:30:46;101469.91;;;2.97;100.00
61318;BME280;47201;40.428;-8.436;2023-01-28T08:32:46;101475.41;;;3.26;100.00
61318;BME280;47201;40.428;-8.436;2023-01-28T08:34:47;101472.28;;;3.56;99.38
61318;BME280;47201;40.428;-8.436;2023-01-28T08:36:50;101473.16;;;4.02;99.33
61318;BME280;47201;40.428;-8.436;2023-01-28T08:38:53;101473.00;;;4.70;96.87
61318;BME280;47201;40.428;-8.436;2023-01-28T08:40:57;101474.63;;;4.92;93.58
61318;BME280;47201;40.428;-8.436;2023-01-28T08:42:59;101483.09;;;4.87;93.02
61318;BME280;47201;40.428;-8.436;2023-01-28T08:44:59;101485.34;;;4.78;94.28
61318;BME280;47201;40.428;-8.436;2023-01-28T08:47:00;101493.63;;;4.67;95.17
61318;BME280;47201;40.428;-8.436;2023-01-28T08:49:00;101487.22;;;4.57;96.10
61318;BME280;47201;40.428;-8.436;2023-01-28T08:51:01;101501.00;;;4.56;94.52
61318;BME280;47201;40.428;-8.436;2023-01-28T08:53:05;101498.41;;;4.56;95.95
61318;BME280;47201;40.428;-8.436;2023-01-28T08:55:06;101492.97;;;4.49;96.39
61318;BME280;47201;40.428;-8.436;2023-01-28T08:57:07;101495.44;;;4.45;97.64
61318;BME280;47201;40.428;-8.436;2023-01-28T08:59:07;101507.59;;;4.48;95.67
61318;BME280;47201;40.428;-8.436;2023-01-28T09:01:08;101499.47;;;4.62;94.10
61318;BME280;47201;40.428;-8.436;2023-01-28T09:03:08;101508.94;;;4.61;94.95
61318;BME280;47201;40.428;-8.436;2023-01-28T09:05:09;101504.75;;;4.40;96.28
61318;BME280;47201;40.428;-8.436;2023-01-28T09:07:10;101508.91;;;4.12;97.91
61318;BME280;47201;40.428;-8.436;2023-01-28T09:09:10;101508.84;;;3.88;100.00
61318;BME280;47201;40.428;-8.436;2023-01-28T09:11:11;101511.72;;;3.73;100.00
61318;BME280;47201;40.428;-8.436;2023-01-28T09:13:12;101514.25;;;3.72;100.00
61318;BME280;47201;40.428;-8.436;2023-01-28T09:15:13;101513.84;;;3.61;100.00
61318;BME280;47201;40.428;-8.436;2023-01-28T09:17:14;101524.03;;;3.58;100.00
61318;BME280;47201;40.428;-8.436;2023-01-28T09:19:14;101511.94;;;3.57;100.00
61318;BME280;47201;40.428;-8.436;2023-01-28T09:21:15;101514.06;;;3.67;100.00
61318;BME280;47201;40.428;-8.436;2023-01-28T09:23:15;101523.72;;;3.94;100.00
61318;BME280;47201;40.428;-8.436;2023-01-28T09:25:16;101510.06;;;4.21;100.00
61318;BME280;47201;40.428;-8.436;2023-01-28T09:27:16;101517.13;;;5.23;100.00
61318;BME280;47201;40.428;-8.436;2023-01-28T09:29:17;101522.97;;;7.98;88.25
61318;BME280;47201;40.428;-8.436;2023-01-28T09:31:21;101506.03;;;10.98;70.84
61318;BME280;47201;40.428;-8.436;2023-01-28T09:33:21;101502.72;;;13.99;54.49
61318;BME280;47201;40.428;-8.436;2023-01-28T09:35:22;101503.41;;;16.45;47.47
61318;BME280;47201;40.428;-8.436;2023-01-28T09:37:22;101508.41;;;18.23;42.26
61318;BME280;47201;40.428;-8.436;2023-01-28T09:39:23;101504.94;;;19.71;39.95
61318;BME280;47201;40.428;-8.436;2023-01-28T09:41:25;101502.00;;;21.03;37.58
61318;BME280;47201;40.428;-8.436;2023-01-28T09:45:37;101510.03;;;22.97;35.79
61318;BME280;47201;40.428;-8.436;2023-01-28T09:47:55;101515.09;;;23.88;33.85
61318;BME280;47201;40.428;-8.436;2023-01-28T09:49:58;101511.22;;;24.16;36.89
61318;BME280;47201;40.428;-8.436;2023-01-28T09:52:03;101521.38;;;24.84;36.18
61318;BME280;47201;40.428;-8.436;2023-01-28T09:54:05;101511.31;;;25.08;38.05
61318;BME280;47201;40.428;-8.436;2023-01-28T09:56:11;101510.13;;;25.66;39.68
61318;BME280;47201;40.428;-8.436;2023-01-28T09:58:13;101509.75;;;24.85;43.43
61318;BME280;47201;40.428;-8.436;2023-01-28T10:00:16;101514.22;;;25.03;45.02
61318;BME280;47201;40.428;-8.436;2023-01-28T10:02:30;101507.25;;;25.54;45.99
61318;BME280;47201;40.428;-8.436;2023-01-28T10:11:11;101517.81;;;23.24;56.18
61318;BME280;47201;40.428;-8.436;2023-01-28T10:13:30;101510.34;;;22.44;58.83
61318;BME280;47201;40.428;-8.436;2023-01-28T10:15:47;101508.34;;;23.17;57.84
61318;BME280;47201;40.428;-8.436;2023-01-28T10:17:50;101509.16;;;23.60;57.02
61318;BME280;47201;40.428;-8.436;2023-01-28T10:19:52;101516.41;;;24.38;56.58
61318;BME280;47201;40.428;-8.436;2023-01-28T10:22:00;101517.00;;;25.72;53.58
61318;BME280;47201;40.428;-8.436;2023-01-28T10:24:03;101515.94;;;25.92;54.06
61318;BME280;47201;40.428;-8.436;2023-01-28T10:26:08;101512.97;;;25.11;58.35
61318;BME280;47201;40.428;-8.436;2023-01-28T10:28:24;101517.16;;;25.16;58.73
61318;BME280;47201;40.428;-8.436;2023-01-28T10:30:27;101508.81;;;24.68;61.10
61318;BME280;47201;40.428;-8.436;2023-01-28T10:32:30;101503.69;;;24.81;60.32
61318;BME280;47201;40.428;-8.436;2023-01-28T10:34:30;101509.84;;;24.83;60.36
61318;BME280;47201;40.428;-8.436;2023-01-28T10:36:31;101510.69;;;25.73;59.94
61318;BME280;47201;40.428;-8.436;2023-01-28T10:38:32;101510.22;;;25.65;58.79
61318;BME280;47201;40.428;-8.436;2023-01-28T10:40:33;101511.22;;;25.46;59.44
61318;BME280;47201;40.428;-8.436;2023-01-28T10:42:34;101503.13;;;25.29;60.12
61318;BME280;47201;40.428;-8.436;2023-01-28T10:44:36;101517.31;;;25.84;59.73
61318;BME280;47201;40.428;-8.436;2023-01-28T10:46:38;101506.97;;;26.75;58.64
61318;BME280;47201;40.428;-8.436;2023-01-28T10:48:43;101505.84;;;26.95;58.17
61318;BME280;47201;40.428;-8.436;2023-01-28T10:50:50;101510.22;;;27.12;58.99
61318;BME280;47201;40.428;-8.436;2023-01-28T10:52:55;101512.81;;;27.44;58.67
61318;BME280;47201;40.428;-8.436;2023-01-28T10:55:01;101520.69;;;27.17;58.55
61318;BME280;47201;40.428;-8.436;2023-01-28T10:57:02;101512.22;;;27.69;58.78
61318;BME280;47201;40.428;-8.436;2023-01-28T11:01:17;101510.94;;;28.47;57.82
61318;BME280;47201;40.428;-8.436;2023-01-28T11:03:17;101502.56;;;28.52;57.85
61318;BME280;47201;40.428;-8.436;2023-01-28T11:07:20;101501.88;;;28.63;58.09
61318;BME280;47201;40.428;-8.436;2023-01-28T11:09:22;101495.63;;;28.21;58.67
61318;BME280;47201;40.428;-8.436;2023-01-28T11:11:23;101497.13;;;27.67;59.00
61318;BME280;47201;40.428;-8.436;2023-01-28T11:13:26;101492.94;;;26.70;60.26